Aeroporto :
LOGIN :

Iscrizione | Disclaimer

   EN    FR    IT 

 










Sommario :    VFR   VFR Marginale   IFR   IFR Intensivo   IFR Molto Intensivo
Visibilità : 
Base nubi : 
>= 8 km
>= 3000ft
5 / 8 km
1000 / 3000 ft
1500m / 5 km
500 / 1000 ft
800 / 1500m
200 / 500 ft
< 800m
< 200 ft
Simboli :   Temporali  Nebbia  Neve Forte  Precipitazioni Forti  Vento > 20 kt
SIGMETs :   Varie  Temporali  Ghiacco  Turbolenza  Onda orograficha  Ceneri Vulcaniche






- Altitudine del aeroporto : 489 ft
- Codice IATA : GDN


EPGD - Gdansk

ULTIMO METAR :
  • 062100Z 22010KT 200V260 9999 BKN006 03/02 Q1002

METARs OBSOLETI :
  • 062030Z 22011KT 9999 OVC008 03/02 Q1002
  • 062000Z 22012KT 9999 BKN008 03/02 Q1002
  • 061930Z 22010KT 190V250 9999 OVC006 03/02 Q1003
  • 061900Z 23011KT 9999 OVC006 03/02 Q1003
  • 061830Z 23012KT 9000 OVC005 02/01 Q1003

TAF TAF EPGD
Valido dal 06 a 18 ore il 07 a 18 ore UTC


061730Z 0618/0718 21015KT 9999 BKN011
TEMPO 0618/0710 22019G31KT 4000 RA BR BKN007
PROB40 0620/0710 2500 RADZ BKN004
BECMG 0710/0712 27020KT BKN020
TEMPO 0710/0718 28022G35KT



MetMap, La meteo Aeronautica in un colpo d'occhio ! - Copyright ORBIFLY Dicembre 2007 - Disclaimer

ORBIFLY MET'MAP TEAM :

Programmazione e sviluppo : Alexandra Zaïnal
Concezione : Baudouin d'Aumeries
Aiuto per la programmazione : Marc-Olivier Méhu
Supporto tecnico e logistico : Manuel Goepfert
Aiuto per la traduzione : Arnaldo La Scala

Contatto : metmap@orbifly.com




FONTI E CREDITI :

   NOAA